Elizabeth, New Jersey
Current Conditions -  °F | °C
As of 12:56 PM on Thursday 23 Oct 2014 (Local Time) from KEWR Reporting Station
Light Rain Light Rain  
Wind Chill: 54°   Ceiling: 2100
Heat Index: 54°   Visibility: 8mi
Dew Point: 50°   Wind: 12mph
Humidity: 88%   Direction: 350°N
Pressure: 29.72"   Gusts: 20mph
Location:  40.66°N, 74.21°W
Report Text: KEWR 231656Z 35010G17KT 8SM -RA FEW012 BKN021 OVC040 12/10 A2972 RMK AO2 BKN V SCT P0001 $
Loading
Personal Weather Stations






























Interactive Weather Map New forecast layout! Learn more

10-Day Weather Forecast

Advertisements
Track Severe Weather on mobile